This is the latest recevied weather packets stored in our database for station/object W7DBO-3. If no packets are shown the sender has not sent any weather packets the latest 10 day(s).
| Time | Temp. | Humidity | Pressure | Rain* | Wind** | Luminosity | Snow |
|---|---|---|---|---|---|---|---|
| 1777122006 | 2.78° C | 48% | 1017.3 hPa | 0 mm | - | - | - |
| 1777118405 | 3.33° C | 47% | 1016.9 hPa | 0 mm | - | - | - |
| 1777114805 | 3.33° C | 51% | 1016.8 hPa | 0 mm | - | - | - |
| 1777111206 | 5° C | 45% | 1015.9 hPa | 0 mm | - | - | - |
| 1777107606 | 5.56° C | 40% | 1015.4 hPa | 0 mm | - | - | - |
| 1777104005 | 6.11° C | 38% | 1014.7 hPa | 0 mm | - | - | - |
| 1777100406 | 6.11° C | 34% | 1014.3 hPa | 0 mm | - | - | - |
| 1777096805 | 6.67° C | 41% | 1013.5 hPa | 0 mm | - | - | - |
| 1777093205 | 7.78° C | 42% | 1012 hPa | 0 mm | - | - | - |
| 1777089606 | 8.89° C | 39% | 1009.8 hPa | 0 mm | - | - | - |
| 1777086006 | 11.11° C | 38% | 1007.4 hPa | 0 mm | - | - | - |
| 1777082405 | 14.44° C | 34% | 1004.8 hPa | 0 mm | - | - | - |
| 1777078805 | 17.22° C | 30% | 1003.1 hPa | 0 mm | - | - | - |
| 1777075206 | 18.89° C | 28% | 1002.2 hPa | 0 mm | - | - | - |
| 1777071606 | 20.56° C | 22% | 1001.3 hPa | 0 mm | - | - | - |
| 1777068005 | 21.11° C | 24% | 1002.1 hPa | 0 mm | - | - | - |
| 1777064406 | 21.67° C | 23% | 1002.6 hPa | 0 mm | - | - | - |
| 1777060806 | 21.11° C | 22% | 1003.7 hPa | 0 mm | - | - | - |
| 1777057205 | 20.56° C | 21% | 1004.7 hPa | 0 mm | - | - | - |
| 1777053606 | 18.89° C | 23% | 1007 hPa | 0 mm | - | - | - |
| 1777050006 | 18.33° C | 30% | 1008.3 hPa | 0 mm | - | - | - |
| 1777046405 | 15.56° C | 39% | 1010.4 hPa | 0 mm | - | - | - |
| 1777042805 | 14.44° C | 38% | 1011.2 hPa | 0 mm | - | - | - |
| 1777039206 | 7.22° C | 58% | 1015.9 hPa | 0 mm | - | - | - |
| 1777035606 | 0° C | 80% | 1020.1 hPa | 0 mm | - | - | - |
* Rain latest hour (hover to see other rain measurements)
** Current wind speed in m/s (hover to see current wind gust speed)